createdAt,value
2017-10-26T00:01:33.339Z,9.60
2017-10-26T00:06:37.296Z,9.80
2017-10-26T00:11:40.481Z,9.80
2017-10-26T00:16:43.697Z,9.80
2017-10-26T00:21:47.632Z,9.80
2017-10-26T00:26:50.834Z,9.90
2017-10-26T00:31:54.039Z,9.70
2017-10-26T00:36:57.215Z,9.70
2017-10-26T00:42:01.154Z,9.50
2017-10-26T00:47:04.391Z,9.40
2017-10-26T00:52:07.593Z,9.30
2017-10-26T00:57:10.905Z,9.30
2017-10-26T01:02:14.194Z,9.30
2017-10-26T01:07:17.521Z,9.30
2017-10-26T01:12:20.780Z,9.30
2017-10-26T01:17:24.720Z,9.20
2017-10-26T01:22:27.912Z,9.20
2017-10-26T01:27:31.855Z,9.20
2017-10-26T01:32:35.069Z,9.20
2017-10-26T01:37:38.262Z,9.10
2017-10-26T01:42:42.189Z,8.90
2017-10-26T01:47:45.378Z,8.90
2017-10-26T01:52:49.403Z,8.80
2017-10-26T01:57:53.348Z,8.90
2017-10-26T02:02:56.523Z,8.90
2017-10-26T02:07:59.945Z,8.60
2017-10-26T02:13:04.044Z,8.40
2017-10-26T02:18:08.349Z,8.40
2017-10-26T02:23:11.525Z,8.50
2017-10-26T02:28:21.603Z,8.60
2017-10-26T02:33:24.786Z,8.60
2017-10-26T02:38:28.780Z,8.70
2017-10-26T02:43:32.117Z,8.70
2017-10-26T02:48:35.529Z,8.70
2017-10-26T02:53:39.532Z,8.70
2017-10-26T02:58:42.714Z,8.70
2017-10-26T03:03:45.930Z,8.60
2017-10-26T03:08:49.110Z,8.50
2017-10-26T03:13:52.293Z,8.50
2017-10-26T03:18:55.490Z,8.60
2017-10-26T03:23:59.472Z,8.20
2017-10-26T03:29:02.660Z,8.20
2017-10-26T03:34:05.839Z,8.10
2017-10-26T03:39:09.015Z,8.30
2017-10-26T03:44:13.000Z,8.50
2017-10-26T03:49:16.493Z,8.40
2017-10-26T03:54:19.657Z,8.40
2017-10-26T03:59:23.689Z,8.20
2017-10-26T04:04:27.627Z,8.20
2017-10-26T04:09:30.895Z,8.20
2017-10-26T04:14:34.057Z,8.20
2017-10-26T04:19:37.244Z,8.00
2017-10-26T04:24:41.349Z,8.00
2017-10-26T04:29:44.550Z,8.10
2017-10-26T04:34:47.728Z,8.10
2017-10-26T04:39:50.943Z,8.20
2017-10-26T04:44:54.155Z,8.10
2017-10-26T04:49:57.339Z,7.90
2017-10-26T04:55:00.665Z,8.00
2017-10-26T05:00:03.862Z,8.20
2017-10-26T05:05:07.230Z,8.30
2017-10-26T05:10:11.198Z,8.40
2017-10-26T05:15:14.469Z,8.40
2017-10-26T05:20:17.680Z,8.50
2017-10-26T05:25:20.986Z,8.50
2017-10-26T05:30:24.178Z,8.40
2017-10-26T05:35:28.106Z,8.40
2017-10-26T05:40:32.041Z,8.40
2017-10-26T05:45:35.213Z,8.30
2017-10-26T05:50:38.395Z,8.30
2017-10-26T05:55:41.581Z,8.30
2017-10-26T06:00:44.811Z,8.30
2017-10-26T06:05:48.001Z,8.30
2017-10-26T06:10:51.289Z,8.40
2017-10-26T06:15:54.462Z,8.40
2017-10-26T06:20:57.766Z,8.40
2017-10-26T06:26:01.156Z,8.50
2017-10-26T06:31:04.366Z,8.60
2017-10-26T06:36:07.812Z,8.60
2017-10-26T06:41:11.772Z,8.90
2017-10-26T06:46:14.969Z,8.80
2017-10-26T06:51:18.143Z,9.00
2017-10-26T06:56:22.118Z,9.60
2017-10-26T07:01:25.414Z,9.50
2017-10-26T07:06:28.593Z,9.80
2017-10-26T07:11:31.803Z,9.90
2017-10-26T07:16:35.021Z,10.10
2017-10-26T07:21:38.235Z,10.10
2017-10-26T07:26:41.466Z,10.10
2017-10-26T07:31:44.698Z,10.20
2017-10-26T07:36:47.916Z,10.20
2017-10-26T07:41:51.898Z,10.60
2017-10-26T07:46:55.122Z,10.60
2017-10-26T07:51:58.336Z,10.90
2017-10-26T07:57:01.625Z,11.00
2017-10-26T08:02:04.810Z,10.90
2017-10-26T08:07:08.020Z,11.10
2017-10-26T08:12:11.222Z,11.30
2017-10-26T08:17:14.425Z,11.40
2017-10-26T08:22:17.639Z,11.90
2017-10-26T08:27:20.853Z,12.40
2017-10-26T08:32:24.066Z,12.20
2017-10-26T08:37:27.391Z,12.40
2017-10-26T08:42:30.610Z,12.70
2017-10-26T08:47:33.799Z,13.20
2017-10-26T08:52:36.984Z,13.60
2017-10-26T08:57:40.172Z,13.60
2017-10-26T09:02:43.367Z,13.80
2017-10-26T09:07:46.594Z,14.10
2017-10-26T09:12:49.789Z,14.00
2017-10-26T09:17:52.990Z,14.30
2017-10-26T09:22:56.196Z,14.50
2017-10-26T09:27:59.472Z,13.90
2017-10-26T09:33:08.960Z,14.10
2017-10-26T09:38:12.180Z,14.50
2017-10-26T09:43:15.500Z,14.40
2017-10-26T09:48:18.688Z,14.50
2017-10-26T09:53:22.050Z,14.20
2017-10-26T09:58:25.369Z,14.10
2017-10-26T10:03:28.558Z,14.70
2017-10-26T10:08:31.763Z,14.80
2017-10-26T10:13:34.980Z,15.30
2017-10-26T10:18:38.187Z,15.40
2017-10-26T10:23:41.393Z,15.60
2017-10-26T10:28:44.623Z,15.80
2017-10-26T10:33:48.571Z,16.10
2017-10-26T10:38:51.807Z,16.10
2017-10-26T10:43:55.034Z,16.10
2017-10-26T10:48:58.211Z,16.50
2017-10-26T10:54:01.425Z,16.20
2017-10-26T10:59:10.041Z,16.80
2017-10-26T11:04:13.390Z,16.40
2017-10-26T11:09:16.977Z,16.40
2017-10-26T11:14:20.169Z,16.30
2017-10-26T11:19:23.350Z,16.70
2017-10-26T11:24:26.481Z,16.90
2017-10-26T11:29:29.688Z,17.10
2017-10-26T11:34:32.874Z,16.80
2017-10-26T11:39:36.679Z,16.90
2017-10-26T11:44:40.627Z,17.30
2017-10-26T11:49:43.846Z,17.30
2017-10-26T11:54:47.043Z,17.60
2017-10-26T11:59:50.247Z,17.50
2017-10-26T12:04:53.426Z,17.80
2017-10-26T12:09:57.371Z,17.80
2017-10-26T12:15:00.740Z,17.80
2017-10-26T12:20:04.109Z,17.50
2017-10-26T12:25:07.408Z,17.90
2017-10-26T12:30:10.596Z,18.20
2017-10-26T12:35:15.280Z,18.00
2017-10-26T12:40:18.481Z,17.90
2017-10-26T12:45:21.872Z,18.00
2017-10-26T12:50:25.083Z,17.80
2017-10-26T12:55:28.299Z,17.70
2017-10-26T13:00:31.690Z,17.70
2017-10-26T13:05:34.975Z,17.80
2017-10-26T13:10:38.950Z,17.80
2017-10-26T13:15:42.144Z,17.70
2017-10-26T13:20:45.564Z,17.70
2017-10-26T13:25:48.793Z,17.70
2017-10-26T13:30:52.009Z,17.90
2017-10-26T13:35:55.248Z,17.50
2017-10-26T13:40:58.467Z,17.50
2017-10-26T13:46:01.638Z,17.50
2017-10-26T13:51:05.562Z,17.70
2017-10-26T13:56:09.550Z,17.30
2017-10-26T14:01:12.696Z,17.30
2017-10-26T14:06:16.698Z,17.60
2017-10-26T14:11:19.892Z,17.60
2017-10-26T14:16:23.106Z,17.60
2017-10-26T14:21:26.293Z,17.60
2017-10-26T14:26:29.492Z,17.70
2017-10-26T14:31:32.678Z,17.60
2017-10-26T14:36:35.863Z,17.40
2017-10-26T14:41:39.967Z,17.00
2017-10-26T14:46:43.164Z,17.00
2017-10-26T14:51:46.438Z,16.80
2017-10-26T14:56:49.630Z,16.90
2017-10-26T15:01:52.951Z,16.80
2017-10-26T15:06:56.161Z,16.60
2017-10-26T15:11:59.593Z,16.50
2017-10-26T15:17:02.809Z,16.50
2017-10-26T15:22:06.025Z,16.50
2017-10-26T15:27:09.195Z,16.50
2017-10-26T15:32:12.393Z,16.50
2017-10-26T15:37:15.600Z,16.40
2017-10-26T15:42:18.805Z,16.40
2017-10-26T15:47:22.080Z,16.30
2017-10-26T15:52:25.301Z,16.20
2017-10-26T15:57:29.267Z,16.10
2017-10-26T16:02:32.472Z,16.10
2017-10-26T16:07:35.655Z,16.00
2017-10-26T16:12:39.015Z,16.00
2017-10-26T16:17:42.223Z,15.80
2017-10-26T16:22:45.466Z,15.70
2017-10-26T16:27:48.688Z,15.70
2017-10-26T16:32:52.008Z,15.60
2017-10-26T16:37:55.241Z,15.40
2017-10-26T16:42:58.421Z,15.30
2017-10-26T16:48:01.617Z,15.20
2017-10-26T16:53:04.793Z,15.10
2017-10-26T16:58:08.774Z,15.00
2017-10-26T17:03:11.980Z,15.00
2017-10-26T17:08:15.158Z,14.90
2017-10-26T17:13:18.542Z,14.90
2017-10-26T17:18:21.742Z,14.80
2017-10-26T17:23:24.967Z,14.70
2017-10-26T17:28:28.182Z,14.60
2017-10-26T17:33:31.409Z,14.60
2017-10-26T17:38:34.630Z,14.60
2017-10-26T17:43:37.825Z,14.60
2017-10-26T17:48:41.029Z,14.50
2017-10-26T17:53:44.232Z,14.30
2017-10-26T17:58:47.483Z,14.10
2017-10-26T18:03:50.666Z,14.00
2017-10-26T18:08:54.136Z,14.00
2017-10-26T18:13:57.318Z,13.90
2017-10-26T18:19:01.312Z,13.50
2017-10-26T18:24:04.614Z,13.50
2017-10-26T18:29:07.854Z,13.50
2017-10-26T18:34:11.838Z,13.30
2017-10-26T18:39:15.051Z,13.30
2017-10-26T18:44:18.410Z,13.40
2017-10-26T18:49:21.627Z,13.30
2017-10-26T18:54:24.961Z,13.10
2017-10-26T18:59:28.282Z,12.60
2017-10-26T19:04:31.560Z,12.40
2017-10-26T19:09:34.797Z,12.40
2017-10-26T19:14:38.148Z,12.60
2017-10-26T19:19:42.230Z,12.70
2017-10-26T19:24:45.507Z,12.70
2017-10-26T19:29:48.778Z,12.80
2017-10-26T19:34:52.015Z,12.90
2017-10-26T19:39:55.265Z,13.10
2017-10-26T19:44:58.525Z,13.10
2017-10-26T19:50:02.501Z,13.20
2017-10-26T19:55:05.736Z,13.30
2017-10-26T20:00:08.933Z,13.20
2017-10-26T20:05:12.371Z,13.20
2017-10-26T20:10:16.325Z,12.90
2017-10-26T20:15:19.541Z,12.90
2017-10-26T20:20:22.721Z,12.80
2017-10-26T20:25:25.952Z,12.80
2017-10-26T20:30:29.177Z,12.70
2017-10-26T20:35:32.394Z,12.80
2017-10-26T20:40:35.613Z,12.70
2017-10-26T20:45:38.854Z,12.70
2017-10-26T20:50:47.558Z,12.70
2017-10-26T20:55:57.305Z,12.60
2017-10-26T21:01:06.021Z,12.60
2017-10-26T21:06:14.833Z,12.50
2017-10-26T21:11:23.599Z,12.40
2017-10-26T21:16:26.774Z,12.30
2017-10-26T21:21:29.967Z,12.20
2017-10-26T21:26:33.175Z,12.30
2017-10-26T21:31:36.351Z,12.20
2017-10-26T21:36:39.537Z,12.20
2017-10-26T21:41:42.771Z,12.40
2017-10-26T21:46:46.906Z,12.40
2017-10-26T21:51:51.036Z,12.50
2017-10-26T21:56:55.068Z,12.50
2017-10-26T22:01:58.284Z,12.50
2017-10-26T22:07:01.477Z,12.60
2017-10-26T22:12:05.450Z,12.70
2017-10-26T22:17:08.770Z,12.70
2017-10-26T22:22:12.016Z,12.70
2017-10-26T22:27:15.953Z,12.70
2017-10-26T22:32:19.173Z,12.70
2017-10-26T22:37:22.349Z,12.70
2017-10-26T22:42:26.360Z,12.60
2017-10-26T22:47:29.545Z,12.60
2017-10-26T22:52:32.769Z,12.50
2017-10-26T22:57:35.948Z,12.50
2017-10-26T23:02:39.138Z,12.60
2017-10-26T23:07:42.340Z,12.70
2017-10-26T23:12:45.545Z,12.50
2017-10-26T23:17:48.759Z,12.60
2017-10-26T23:22:52.100Z,12.60
2017-10-26T23:27:55.425Z,12.60
2017-10-26T23:32:58.657Z,12.60
2017-10-26T23:38:01.878Z,12.70
2017-10-26T23:43:05.085Z,12.70
2017-10-26T23:48:08.328Z,12.60
2017-10-26T23:53:11.527Z,12.70
2017-10-26T23:58:14.824Z,12.60
